createdAt,value
2019-05-11T00:02:07.437Z,14.43
2019-05-11T00:04:34.550Z,15.63
2019-05-11T00:07:01.624Z,14.77
2019-05-11T00:09:28.698Z,14.30
2019-05-11T00:11:55.803Z,12.77
2019-05-11T00:14:22.904Z,13.93
2019-05-11T00:16:49.995Z,12.80
2019-05-11T00:19:17.077Z,13.97
2019-05-11T00:21:44.160Z,14.30
2019-05-11T00:24:11.243Z,16.20
2019-05-11T00:26:38.327Z,14.60
2019-05-11T00:29:05.435Z,15.50
2019-05-11T00:31:32.534Z,19.03
2019-05-11T00:33:59.654Z,15.97
2019-05-11T00:36:26.699Z,14.47
2019-05-11T00:38:53.763Z,14.87
2019-05-11T00:41:22.680Z,17.30
2019-05-11T00:43:49.714Z,15.33
2019-05-11T00:46:16.797Z,21.87
2019-05-11T00:48:43.888Z,12.33
2019-05-11T00:51:11.007Z,16.60
2019-05-11T00:53:38.084Z,13.83
2019-05-11T00:56:05.162Z,17.80
2019-05-11T00:58:33.345Z,20.20
2019-05-11T01:01:00.435Z,15.03
2019-05-11T01:03:27.496Z,14.63
2019-05-11T01:05:54.573Z,14.00
2019-05-11T01:08:21.743Z,11.20
2019-05-11T01:10:48.787Z,14.77
2019-05-11T01:13:15.883Z,18.70
2019-05-11T01:15:42.969Z,13.57
2019-05-11T01:18:10.043Z,17.03
2019-05-11T01:20:37.130Z,15.93
2019-05-11T01:23:04.218Z,13.70
2019-05-11T01:25:31.295Z,12.70
2019-05-11T01:27:58.498Z,15.67
2019-05-11T01:30:25.572Z,15.00
2019-05-11T01:32:52.674Z,12.43
2019-05-11T01:35:19.746Z,15.33
2019-05-11T01:37:46.819Z,16.50
2019-05-11T01:40:13.998Z,13.93
2019-05-11T01:42:41.081Z,16.63
2019-05-11T01:45:08.467Z,8.73
2019-05-11T01:47:35.578Z,13.90
2019-05-11T01:50:02.656Z,14.83
2019-05-11T01:52:29.740Z,15.23
2019-05-11T01:54:56.829Z,12.83
2019-05-11T01:57:23.922Z,11.33
2019-05-11T01:59:51.013Z,13.93
2019-05-11T02:02:18.105Z,12.33
2019-05-11T02:04:45.199Z,16.63
2019-05-11T02:07:14.259Z,18.63
2019-05-11T02:09:41.346Z,16.80
2019-05-11T02:12:08.427Z,16.80
2019-05-11T02:14:35.536Z,13.33
2019-05-11T02:17:02.619Z,14.27
2019-05-11T02:19:29.699Z,18.03
2019-05-11T02:21:56.777Z,15.70
2019-05-11T02:24:23.864Z,14.07
2019-05-11T02:26:52.046Z,11.10
2019-05-11T02:29:19.163Z,13.60
2019-05-11T02:31:46.259Z,16.83
2019-05-11T02:34:13.350Z,18.77
2019-05-11T02:36:40.419Z,15.47
2019-05-11T02:39:07.501Z,14.53
2019-05-11T02:41:37.249Z,17.60
2019-05-11T02:44:03.733Z,15.23
2019-05-11T02:46:30.822Z,15.40
2019-05-11T02:48:57.892Z,18.73
2019-05-11T02:51:25.983Z,20.93
2019-05-11T02:53:53.578Z,16.70
2019-05-11T02:56:20.668Z,30.63
2019-05-11T02:58:47.742Z,14.57
2019-05-11T03:01:14.816Z,19.10
2019-05-11T03:03:41.889Z,15.63
2019-05-11T03:06:08.982Z,21.80
2019-05-11T03:08:36.089Z,11.80
2019-05-11T03:11:03.157Z,16.20
2019-05-11T03:13:30.258Z,19.50
2019-05-11T03:15:57.315Z,12.80
2019-05-11T03:18:24.405Z,13.20
2019-05-11T03:20:51.490Z,13.47
2019-05-11T03:23:18.586Z,16.50
2019-05-11T03:25:45.667Z,14.77
2019-05-11T03:28:12.746Z,13.03
2019-05-11T03:30:39.875Z,18.20
2019-05-11T03:33:07.021Z,16.57
2019-05-11T03:35:34.131Z,11.73
2019-05-11T03:38:01.217Z,13.20
2019-05-11T03:40:28.298Z,21.23
2019-05-11T03:42:55.396Z,18.93
2019-05-11T03:45:22.526Z,10.53
2019-05-11T03:47:49.605Z,19.93
2019-05-11T03:50:16.679Z,15.50
2019-05-11T03:52:43.780Z,19.83
2019-05-11T03:55:11.094Z,22.53
2019-05-11T03:57:38.162Z,14.10
2019-05-11T04:00:07.370Z,12.57
2019-05-11T04:02:34.486Z,13.87
2019-05-11T04:05:01.584Z,6.17
2019-05-11T04:07:28.666Z,8.03
2019-05-11T04:09:55.741Z,20.77
2019-05-11T04:12:34.026Z,11.77
2019-05-11T04:14:51.800Z,13.83
2019-05-11T04:17:21.541Z,9.63
2019-05-11T04:19:49.076Z,9.57
2019-05-11T04:22:16.162Z,9.57
2019-05-11T04:24:43.258Z,11.10
2019-05-11T04:27:10.352Z,10.93
2019-05-11T04:29:37.428Z,10.50
2019-05-11T04:32:04.502Z,10.27
2019-05-11T04:34:31.638Z,12.30
2019-05-11T04:36:58.718Z,11.83
2019-05-11T04:39:25.795Z,8.10
2019-05-11T04:41:52.870Z,10.50
2019-05-11T04:44:19.943Z,9.80
2019-05-11T04:46:47.024Z,8.90
2019-05-11T04:49:14.093Z,10.20
2019-05-11T04:51:41.162Z,8.17
2019-05-11T04:54:08.246Z,9.43
2019-05-11T04:56:35.335Z,10.10
2019-05-11T04:59:02.421Z,7.37
2019-05-11T05:01:29.721Z,9.37
2019-05-11T05:04:12.259Z,8.07
2019-05-11T05:06:25.783Z,8.73
2019-05-11T05:08:52.862Z,8.73
2019-05-11T05:11:19.959Z,6.73
2019-05-11T05:13:47.045Z,10.30
2019-05-11T05:16:14.130Z,8.77
2019-05-11T05:18:41.212Z,7.67
2019-05-11T05:21:08.315Z,6.63
2019-05-11T05:23:35.400Z,7.27
2019-05-11T05:26:02.513Z,6.10
2019-05-11T05:28:29.579Z,8.27
2019-05-11T05:30:56.692Z,6.90
2019-05-11T05:33:23.762Z,7.63
2019-05-11T05:35:50.851Z,6.63
2019-05-11T05:38:17.935Z,6.80
2019-05-11T05:40:45.047Z,8.00
2019-05-11T05:43:25.601Z,8.83
2019-05-11T05:45:41.235Z,8.47
2019-05-11T05:48:08.394Z,7.80
2019-05-11T05:50:35.462Z,7.83
2019-05-11T05:53:02.565Z,7.50
2019-05-11T05:55:29.619Z,6.37
2019-05-11T05:57:56.706Z,7.07
2019-05-11T06:00:23.779Z,7.20
2019-05-11T06:02:53.459Z,6.47
2019-05-11T06:05:21.736Z,5.37
2019-05-11T06:07:49.048Z,6.50
2019-05-11T06:10:16.237Z,7.17
2019-05-11T06:12:43.323Z,8.37
2019-05-11T06:15:11.508Z,7.73
2019-05-11T06:17:38.587Z,7.27
2019-05-11T06:20:06.668Z,9.03
2019-05-11T06:22:34.114Z,7.37
2019-05-11T06:25:01.217Z,6.27
2019-05-11T06:27:28.300Z,5.93
2019-05-11T06:29:55.386Z,5.93
2019-05-11T06:32:22.482Z,8.10
2019-05-11T06:34:51.365Z,5.77
2019-05-11T06:37:18.518Z,4.33
2019-05-11T06:39:45.619Z,5.90
2019-05-11T06:42:12.693Z,5.73
2019-05-11T06:44:39.790Z,4.10
2019-05-11T06:47:06.869Z,4.20
2019-05-11T06:49:33.957Z,4.80
2019-05-11T06:52:01.139Z,3.60
2019-05-11T06:54:28.221Z,4.77
2019-05-11T06:56:57.107Z,4.47
2019-05-11T06:59:24.186Z,4.67
2019-05-11T07:01:51.299Z,6.33
2019-05-11T07:04:18.418Z,6.53
2019-05-11T07:06:46.654Z,4.93
2019-05-11T07:09:13.769Z,6.43
2019-05-11T07:11:40.854Z,6.47
2019-05-11T07:14:19.882Z,5.53
2019-05-11T07:16:36.921Z,6.53
2019-05-11T07:19:04.111Z,7.47
2019-05-11T07:21:31.190Z,5.50
2019-05-11T07:23:58.313Z,5.10
2019-05-11T07:26:25.427Z,6.23
2019-05-11T07:28:52.480Z,6.30
2019-05-11T07:31:20.854Z,6.17
2019-05-11T07:33:48.623Z,6.03
2019-05-11T07:36:17.719Z,5.57
2019-05-11T07:38:44.809Z,6.53
2019-05-11T07:41:11.874Z,7.33
2019-05-11T07:43:38.946Z,6.43
2019-05-11T07:46:07.808Z,6.27
2019-05-11T07:48:35.041Z,6.93
2019-05-11T07:51:02.107Z,6.23
2019-05-11T07:53:29.183Z,8.57
2019-05-11T07:55:57.855Z,5.93
2019-05-11T07:58:25.055Z,8.73
2019-05-11T08:00:52.159Z,6.07
2019-05-11T08:03:19.230Z,5.37
2019-05-11T08:05:47.828Z,5.67
2019-05-11T08:08:15.180Z,4.83
2019-05-11T08:10:42.265Z,5.50
2019-05-11T08:13:09.399Z,7.57
2019-05-11T08:15:38.248Z,6.43
2019-05-11T08:18:05.463Z,6.67
2019-05-11T08:20:34.355Z,6.13
2019-05-11T08:23:01.420Z,5.33
2019-05-11T08:25:28.791Z,4.23
2019-05-11T08:27:56.003Z,5.40
2019-05-11T08:30:23.824Z,7.10
2019-05-11T08:32:50.903Z,4.50
2019-05-11T08:35:18.092Z,4.83
2019-05-11T08:37:47.725Z,4.23
2019-05-11T08:40:18.339Z,6.40
2019-05-11T08:42:45.357Z,4.73
2019-05-11T08:45:20.021Z,4.10
2019-05-11T08:47:41.444Z,7.90
2019-05-11T08:50:08.725Z,3.97
2019-05-11T08:52:35.809Z,6.63
2019-05-11T08:55:03.112Z,5.60
2019-05-11T08:57:30.202Z,3.77
2019-05-11T08:59:57.888Z,5.47
2019-05-11T09:02:27.628Z,8.07
2019-05-11T09:04:54.240Z,3.63
2019-05-11T09:07:21.319Z,6.83
2019-05-11T09:09:48.522Z,5.20
2019-05-11T09:12:15.588Z,5.47
2019-05-11T09:14:42.671Z,4.10
2019-05-11T09:17:09.747Z,5.30
2019-05-11T09:19:38.795Z,4.37
2019-05-11T09:22:08.317Z,6.07
2019-05-11T09:24:35.622Z,3.70
2019-05-11T09:27:02.695Z,4.00
2019-05-11T09:29:32.439Z,3.40
2019-05-11T09:31:59.560Z,8.50
2019-05-11T09:34:28.761Z,3.50
2019-05-11T09:36:55.624Z,2.70
2019-05-11T09:39:22.707Z,4.20
2019-05-11T09:41:49.803Z,4.67
2019-05-11T09:44:18.260Z,3.87
2019-05-11T09:46:47.893Z,3.80
2019-05-11T09:49:15.055Z,4.20
2019-05-11T09:51:42.487Z,3.77
2019-05-11T09:54:09.553Z,2.63
2019-05-11T09:56:38.258Z,3.90
2019-05-11T09:59:05.451Z,3.20
2019-05-11T10:01:32.645Z,2.93
2019-05-11T10:03:59.727Z,4.40
2019-05-11T10:06:28.212Z,4.27
2019-05-11T10:08:57.737Z,3.23
2019-05-11T10:11:24.537Z,3.87
2019-05-11T10:13:53.620Z,5.33
2019-05-11T10:16:21.386Z,4.73
2019-05-11T10:18:49.293Z,4.67
2019-05-11T10:21:19.436Z,4.53
2019-05-11T10:23:48.667Z,5.27
2019-05-11T10:26:15.485Z,3.97
2019-05-11T10:28:42.571Z,6.70
2019-05-11T10:31:09.652Z,5.93
2019-05-11T10:33:38.239Z,3.53
2019-05-11T10:36:05.462Z,3.37
2019-05-11T10:38:32.529Z,5.37
2019-05-11T10:41:02.214Z,3.80
2019-05-11T10:43:29.291Z,6.07
2019-05-11T10:45:58.630Z,3.63
2019-05-11T10:48:25.367Z,3.53
2019-05-11T10:50:52.454Z,4.03
2019-05-11T10:53:19.519Z,2.83
2019-05-11T10:55:47.907Z,2.80
2019-05-11T10:58:15.199Z,4.10
2019-05-11T11:00:42.297Z,3.67
2019-05-11T11:03:09.374Z,3.40
2019-05-11T11:05:38.406Z,5.20
2019-05-11T11:08:08.294Z,3.67
2019-05-11T11:10:37.735Z,3.27
2019-05-11T11:13:04.593Z,5.83
2019-05-11T11:15:31.671Z,4.17
2019-05-11T11:17:58.830Z,3.30
2019-05-11T11:20:28.029Z,5.33
2019-05-11T11:22:54.890Z,4.03
2019-05-11T11:25:21.991Z,4.00
2019-05-11T11:27:51.292Z,3.07
2019-05-11T11:30:18.570Z,5.23
2019-05-11T11:32:48.231Z,4.53
2019-05-11T11:35:15.573Z,5.53
2019-05-11T11:37:42.656Z,3.03
2019-05-11T11:40:09.817Z,3.13
2019-05-11T11:42:37.751Z,3.40
2019-05-11T11:45:08.157Z,4.43
2019-05-11T11:47:35.208Z,3.90
2019-05-11T11:50:02.465Z,5.10
2019-05-11T11:52:29.534Z,4.10
2019-05-11T11:54:58.696Z,4.10
2019-05-11T11:57:25.692Z,7.10
2019-05-11T11:59:52.790Z,5.27
2019-05-11T12:02:23.024Z,3.73
2019-05-11T12:04:50.109Z,2.87
2019-05-11T12:07:18.008Z,2.50
2019-05-11T12:09:45.296Z,2.40
2019-05-11T12:12:12.370Z,2.40
2019-05-11T12:14:39.450Z,10.10
2019-05-11T12:17:10.475Z,2.73
2019-05-11T12:19:35.637Z,4.93
2019-05-11T12:22:02.704Z,4.47
2019-05-11T12:24:29.783Z,3.90
2019-05-11T12:26:58.726Z,3.60
2019-05-11T12:29:27.982Z,2.40
2019-05-11T12:31:55.571Z,2.73
2019-05-11T12:34:22.717Z,6.67
2019-05-11T12:36:51.625Z,2.23
2019-05-11T12:39:19.269Z,4.30
2019-05-11T12:41:47.912Z,2.40
2019-05-11T12:44:15.318Z,5.97
2019-05-11T12:46:42.455Z,3.23
2019-05-11T12:49:09.529Z,3.80
2019-05-11T12:51:38.282Z,3.37
2019-05-11T12:54:08.333Z,2.10
2019-05-11T12:56:35.526Z,3.33
2019-05-11T12:59:02.619Z,5.13
2019-05-11T13:01:33.698Z,3.33
2019-05-11T13:04:00.777Z,2.00
2019-05-11T13:06:28.085Z,3.57
2019-05-11T13:08:55.249Z,3.07
2019-05-11T13:11:22.319Z,1.67
2019-05-11T13:13:49.394Z,1.93
2019-05-11T13:16:18.346Z,2.97
2019-05-11T13:18:45.454Z,2.53
2019-05-11T13:21:13.248Z,3.87
2019-05-11T13:23:40.337Z,3.03
2019-05-11T13:26:08.751Z,1.50
2019-05-11T13:28:37.813Z,1.50
2019-05-11T13:31:04.979Z,2.33
2019-05-11T13:33:32.038Z,2.77
2019-05-11T13:36:00.935Z,2.73
2019-05-11T13:38:28.388Z,1.80
2019-05-11T13:40:55.495Z,1.47
2019-05-11T13:43:22.570Z,2.90
2019-05-11T13:45:49.703Z,3.70
2019-05-11T13:48:17.687Z,1.40
2019-05-11T13:50:44.944Z,2.53
2019-05-11T13:53:12.019Z,2.07
2019-05-11T13:55:39.087Z,2.27
2019-05-11T13:58:08.136Z,1.77
2019-05-11T14:00:38.055Z,1.97
2019-05-11T14:03:07.903Z,2.87
2019-05-11T14:05:35.028Z,4.43
2019-05-11T14:08:02.120Z,2.33
2019-05-11T14:10:29.184Z,2.97
2019-05-11T14:12:58.171Z,5.17
2019-05-11T14:15:25.230Z,1.63
2019-05-11T14:18:04.640Z,2.17
2019-05-11T14:20:21.287Z,1.83
2019-05-11T14:22:48.363Z,2.90
2019-05-11T14:25:15.431Z,5.23
2019-05-11T14:27:42.617Z,2.07
2019-05-11T14:30:11.699Z,3.20
2019-05-11T14:32:39.073Z,1.77
2019-05-11T14:35:11.298Z,1.73
2019-05-11T14:37:37.813Z,3.07
2019-05-11T14:40:04.661Z,2.10
2019-05-11T14:42:31.726Z,5.97
2019-05-11T14:44:59.118Z,4.33
2019-05-11T14:47:28.293Z,10.10
2019-05-11T14:49:57.686Z,4.20
2019-05-11T14:52:24.381Z,5.93
2019-05-11T14:54:51.459Z,6.03
2019-05-11T14:57:18.786Z,5.20
2019-05-11T14:59:48.152Z,4.40
2019-05-11T15:02:33.228Z,6.27
2019-05-11T15:05:00.326Z,3.73
2019-05-11T15:07:28.346Z,7.10
2019-05-11T15:09:55.460Z,5.97
2019-05-11T15:12:22.546Z,5.10
2019-05-11T15:14:49.629Z,4.97
2019-05-11T15:17:18.572Z,6.37
2019-05-11T15:19:45.674Z,4.97
2019-05-11T15:22:12.749Z,7.33
2019-05-11T15:24:39.819Z,8.53
2019-05-11T15:27:08.162Z,7.03
2019-05-11T15:29:37.788Z,5.83
2019-05-11T15:32:04.960Z,4.93
2019-05-11T15:34:32.051Z,4.17
2019-05-11T15:36:59.122Z,3.90
2019-05-11T15:39:28.621Z,6.17
2019-05-11T15:42:07.353Z,6.37
2019-05-11T15:44:24.163Z,3.93
2019-05-11T15:46:51.231Z,6.83
2019-05-11T15:49:18.295Z,5.30
2019-05-11T15:51:45.391Z,4.83
2019-05-11T15:54:12.476Z,3.80
2019-05-11T15:56:39.556Z,3.53
2019-05-11T15:59:08.618Z,5.00
2019-05-11T16:01:38.336Z,5.17
2019-05-11T16:04:04.977Z,4.23
2019-05-11T16:06:32.104Z,4.20
2019-05-11T16:08:59.189Z,3.83
2019-05-11T16:11:27.816Z,3.20
2019-05-11T16:13:55.248Z,4.80
2019-05-11T16:16:22.346Z,3.90
2019-05-11T16:18:50.732Z,10.87
2019-05-11T16:21:18.170Z,4.87
2019-05-11T16:23:45.363Z,4.10
2019-05-11T16:26:12.473Z,6.07
2019-05-11T16:28:39.542Z,4.43
2019-05-11T16:31:09.247Z,3.90
2019-05-11T16:33:36.534Z,4.27
2019-05-11T16:36:03.603Z,6.20
2019-05-11T16:38:31.468Z,4.40
2019-05-11T16:40:59.655Z,3.80
2019-05-11T16:43:28.129Z,2.40
2019-05-11T16:45:55.411Z,3.30
2019-05-11T16:48:27.593Z,2.30
2019-05-11T16:50:54.459Z,3.23
2019-05-11T16:53:21.551Z,2.80
2019-05-11T16:55:48.803Z,2.53
2019-05-11T16:58:19.453Z,2.53
2019-05-11T17:00:44.952Z,3.10
2019-05-11T17:03:12.044Z,3.60
2019-05-11T17:05:39.119Z,2.73
2019-05-11T17:08:08.072Z,3.30
2019-05-11T17:10:35.264Z,4.47
2019-05-11T17:13:02.391Z,3.03
2019-05-11T17:15:29.463Z,3.17
2019-05-11T17:17:58.819Z,2.83
2019-05-11T17:20:27.734Z,4.30
2019-05-11T17:22:54.941Z,3.30
2019-05-11T17:25:22.007Z,2.90
2019-05-11T17:27:49.307Z,2.97
2019-05-11T17:30:19.266Z,7.27
2019-05-11T17:32:45.873Z,4.57
2019-05-11T17:35:13.252Z,5.03
2019-05-11T17:37:40.319Z,3.53
2019-05-11T17:40:08.983Z,3.17
2019-05-11T17:42:37.850Z,5.67
2019-05-11T17:45:05.435Z,8.50
2019-05-11T17:47:32.519Z,3.00
2019-05-11T17:50:03.627Z,4.83
2019-05-11T17:52:28.558Z,2.53
2019-05-11T17:54:55.639Z,2.40
2019-05-11T17:57:22.763Z,3.17
2019-05-11T17:59:49.839Z,2.07
2019-05-11T18:02:18.135Z,3.97
2019-05-11T18:04:45.424Z,6.47
2019-05-11T18:07:24.311Z,5.33
2019-05-11T18:09:41.489Z,4.40
2019-05-11T18:12:09.843Z,4.10
2019-05-11T18:14:39.474Z,4.33
2019-05-11T18:17:09.928Z,4.57
2019-05-11T18:19:36.436Z,2.80
2019-05-11T18:22:03.681Z,2.70
2019-05-11T18:24:30.744Z,2.53
2019-05-11T18:26:59.114Z,5.60
2019-05-11T18:29:28.618Z,2.60
2019-05-11T18:31:57.817Z,4.03
2019-05-11T18:34:24.399Z,2.77
2019-05-11T18:36:51.480Z,3.23
2019-05-11T18:39:18.742Z,3.50
2019-05-11T18:41:48.261Z,2.53
2019-05-11T18:44:14.813Z,4.50
2019-05-11T18:46:41.904Z,4.87
2019-05-11T18:49:08.969Z,5.40
2019-05-11T18:51:37.875Z,5.40
2019-05-11T18:54:05.119Z,3.00
2019-05-11T18:56:32.199Z,4.83
2019-05-11T18:58:59.281Z,7.03
2019-05-11T19:01:28.592Z,2.77
2019-05-11T19:03:55.335Z,4.63
2019-05-11T19:06:24.246Z,3.20
2019-05-11T19:08:51.315Z,5.50
2019-05-11T19:11:18.455Z,6.23
2019-05-11T19:13:47.744Z,6.53
2019-05-11T19:16:14.574Z,4.83
2019-05-11T19:18:42.770Z,4.87
2019-05-11T19:21:10.058Z,5.73
2019-05-11T19:23:38.039Z,3.40
2019-05-11T19:26:05.490Z,3.40
2019-05-11T19:28:32.554Z,3.87
2019-05-11T19:30:59.723Z,9.30
2019-05-11T19:33:27.776Z,4.53
2019-05-11T19:35:55.104Z,4.97
2019-05-11T19:38:23.979Z,4.80
2019-05-11T19:40:51.752Z,3.70
2019-05-11T19:43:18.876Z,4.23
2019-05-11T19:45:45.946Z,5.33
2019-05-11T19:48:14.138Z,3.00
2019-05-11T19:50:41.215Z,3.47
2019-05-11T19:53:08.580Z,3.83
2019-05-11T19:55:35.680Z,3.73
2019-05-11T19:58:02.759Z,5.77
2019-05-11T20:00:29.942Z,9.53
2019-05-11T20:02:58.543Z,3.23
2019-05-11T20:05:28.868Z,2.87
2019-05-11T20:07:58.304Z,3.30
2019-05-11T20:10:27.772Z,4.17
2019-05-11T20:12:58.841Z,4.37
2019-05-11T20:15:25.909Z,2.00
2019-05-11T20:17:52.970Z,3.40
2019-05-11T20:20:20.059Z,2.37
2019-05-11T20:22:48.770Z,2.07
2019-05-11T20:25:18.672Z,3.90
2019-05-11T20:27:45.043Z,2.97
2019-05-11T20:30:12.131Z,3.43
2019-05-11T20:32:39.204Z,3.50
2019-05-11T20:35:08.502Z,3.73
2019-05-11T20:37:38.115Z,2.63
2019-05-11T20:40:04.733Z,2.90
2019-05-11T20:42:33.621Z,4.47
2019-05-11T20:45:00.695Z,4.17
2019-05-11T20:47:28.717Z,5.70
2019-05-11T20:49:58.707Z,2.80
2019-05-11T20:52:28.284Z,5.60
2019-05-11T20:54:54.996Z,4.27
2019-05-11T20:57:22.099Z,2.70
2019-05-11T20:59:49.170Z,3.97
2019-05-11T21:02:18.291Z,3.87
2019-05-11T21:04:49.053Z,3.83
2019-05-11T21:07:16.354Z,1.73
2019-05-11T21:09:43.462Z,3.80
2019-05-11T21:12:10.545Z,3.93
2019-05-11T21:14:38.586Z,4.67
2019-05-11T21:17:05.869Z,3.47
2019-05-11T21:19:32.944Z,2.33
2019-05-11T21:22:01.843Z,2.43
2019-05-11T21:24:28.925Z,2.30
2019-05-11T21:27:00.725Z,2.90
2019-05-11T21:29:31.216Z,1.53
2019-05-11T21:31:58.875Z,2.80
2019-05-11T21:34:27.918Z,1.70
2019-05-11T21:36:54.795Z,5.27
2019-05-11T21:39:21.894Z,4.47
2019-05-11T21:41:48.983Z,1.83
2019-05-11T21:44:18.710Z,3.43
2019-05-11T21:46:47.341Z,2.23
2019-05-11T21:49:14.423Z,3.73
2019-05-11T21:51:41.494Z,3.80
2019-05-11T21:54:08.568Z,3.93
2019-05-11T21:56:37.996Z,1.07
2019-05-11T21:59:04.685Z,1.20
2019-05-11T22:01:31.789Z,0.97
2019-05-11T22:03:59.499Z,4.37
2019-05-11T22:06:30.186Z,1.93
2019-05-11T22:08:55.771Z,1.20
2019-05-11T22:11:22.845Z,1.30
2019-05-11T22:13:49.943Z,1.43
2019-05-11T22:16:16.992Z,1.70
2019-05-11T22:18:44.054Z,1.30
2019-05-11T22:21:11.164Z,1.97
2019-05-11T22:23:38.635Z,1.43
2019-05-11T22:26:07.762Z,1.53
2019-05-11T22:28:34.743Z,2.40
2019-05-11T22:31:01.817Z,2.33
2019-05-11T22:33:28.883Z,2.63
2019-05-11T22:35:55.961Z,4.90
2019-05-11T22:38:23.034Z,1.50
2019-05-11T22:40:50.150Z,4.53
2019-05-11T22:43:18.355Z,5.83
2019-05-11T22:45:45.416Z,2.77
2019-05-11T22:48:12.477Z,1.10
2019-05-11T22:50:39.551Z,4.80
2019-05-11T22:53:08.712Z,2.30
2019-05-11T22:55:37.978Z,0.90
2019-05-11T22:58:04.639Z,1.60
2019-05-11T23:00:39.251Z,1.17
2019-05-11T23:03:07.651Z,1.43
2019-05-11T23:05:35.291Z,3.73
2019-05-11T23:08:02.415Z,1.80
2019-05-11T23:10:29.486Z,1.20
2019-05-11T23:12:56.561Z,1.03
2019-05-11T23:15:23.704Z,1.00
2019-05-11T23:17:50.770Z,1.23
2019-05-11T23:20:18.369Z,1.40
2019-05-11T23:22:56.862Z,5.00
2019-05-11T23:25:19.203Z,1.00
2019-05-11T23:27:48.495Z,2.27
2019-05-11T23:30:16.192Z,2.63
2019-05-11T23:32:43.288Z,3.03
2019-05-11T23:35:10.576Z,1.97
2019-05-11T23:37:38.645Z,1.23
2019-05-11T23:40:06.079Z,2.30
2019-05-11T23:42:33.200Z,0.60
2019-05-11T23:45:00.279Z,3.83
2019-05-11T23:47:28.819Z,3.33
2019-05-11T23:49:58.158Z,1.30
2019-05-11T23:52:25.014Z,2.03
2019-05-11T23:54:52.076Z,0.60
2019-05-11T23:57:19.206Z,1.13
2019-05-11T23:59:47.778Z,0.50
